Time;durP1;ratioP1;P1;durP2;ratioP2;P2;SDS_P1;SDS_P2;PMS_P1;PMS_P2;Temp;Humidity;BMP_temperature;BMP_pressure;BME280_temperature;BME280_humidity;BME280_pressure;Samples;Min_cycle;Max_cycle;Signal;HPM_P1;HPM_P2
2023/02/23 00:02:19;;;;;;;15.40;6.80;;;;;;;-11.39;100.00;100463.81;105749;1253;62105;-59
2023/02/23 00:04:48;;;;;;;19.40;8.60;;;;;;;-11.35;100.00;100464.88;105646;1253;74314;-54
2023/02/23 00:07:19;;;;;;;16.50;8.30;;;;;;;-11.30;100.00;100466.10;105681;1257;68421;-54
2023/02/23 00:09:47;;;;;;;15.50;7.10;;;;;;;-11.28;100.00;100469.90;105822;1257;73880;-56
2023/02/23 00:12:17;;;;;;;22.90;8.30;;;;;;;-11.24;100.00;100474.52;105983;1257;62545;-56
2023/02/23 00:14:45;;;;;;;16.40;7.30;;;;;;;-11.22;100.00;100481.17;105603;1254;61326;-54
2023/02/23 00:17:16;;;;;;;19.30;8.80;;;;;;;-11.22;100.00;100484.52;105655;1254;75124;-54
2023/02/23 00:19:46;;;;;;;;;;;;;;;-11.24;100.00;100484.91;105931;1253;67360;-54
2023/02/23 00:22:14;;;;;;;16.00;8.00;;;;;;;-11.25;100.00;100488.79;105966;1254;72382;-56
2023/02/23 00:24:45;;;;;;;17.10;7.30;;;;;;;-11.26;100.00;100491.98;105679;1257;61705;-54
2023/02/23 00:27:18;;;;;;;14.70;7.70;;;;;;;-11.28;100.00;100492.39;105622;1256;62770;-54
2023/02/23 00:29:48;;;;;;;16.60;7.70;;;;;;;-11.30;100.00;100497.80;106226;1257;76397;-57
2023/02/23 00:32:20;;;;;;;15.90;7.20;;;;;;;-11.33;100.00;100500.22;105591;1254;68257;-54
2023/02/23 00:34:51;;;;;;;18.70;7.60;;;;;;;-11.35;100.00;100501.45;105543;1256;74405;-54
2023/02/23 00:37:21;;;;;;;18.10;8.10;;;;;;;-11.37;100.00;100502.66;105905;1254;62675;-54
2023/02/23 00:39:53;;;;;;;16.00;8.00;;;;;;;-11.36;100.00;100503.00;105974;1257;61880;-57
2023/02/23 00:42:22;;;;;;;17.30;7.50;;;;;;;-11.38;100.00;100503.86;105699;1252;75115;-55
2023/02/23 00:44:51;;;;;;;15.30;7.30;;;;;;;-11.39;100.00;100499.20;105890;1253;68372;-54
2023/02/23 00:47:20;;;;;;;18.50;8.00;;;;;;;-11.39;100.00;100504.09;105823;1254;74239;-57
2023/02/23 00:49:49;;;;;;;19.60;9.00;;;;;;;-11.40;100.00;100506.10;105447;1254;63389;-55
2023/02/23 00:52:19;;;;;;;19.00;8.70;;;;;;;-11.39;100.00;100502.90;105901;1254;61908;-53
2023/02/23 00:54:50;;;;;;;18.20;8.30;;;;;;;-11.38;100.00;100507.24;105746;1256;76465;-53
2023/02/23 00:57:18;;;;;;;14.70;7.00;;;;;;;-11.41;100.00;100508.65;106077;1256;66464;-56
2023/02/23 00:59:50;;;;;;;16.50;7.90;;;;;;;-11.45;100.00;100509.41;105890;1254;74273;-54
2023/02/23 01:02:19;;;;;;;15.20;7.70;;;;;;;-11.47;100.00;100511.16;105753;1260;61708;-54
2023/02/23 01:04:49;;;;;;;12.60;6.60;;;;;;;-11.50;100.00;100512.57;105840;1254;61845;-55
2023/02/23 01:07:18;;;;;;;14.20;6.80;;;;;;;-11.53;100.00;100515.31;106000;1254;75929;-56
2023/02/23 01:09:47;;;;;;;17.60;8.50;;;;;;;-11.56;100.00;100512.88;105607;1257;67066;-54
2023/02/23 01:12:18;;;;;;;15.80;7.50;;;;;;;-11.61;100.00;100513.34;105774;1259;74193;-54
2023/02/23 01:14:47;;;;;;;16.60;8.50;;;;;;;-11.65;100.00;100520.30;105870;1257;62482;-53
2023/02/23 01:17:16;;;;;;;20.40;8.90;;;;;;;-11.70;100.00;100524.43;105810;1254;61129;-56
2023/02/23 01:19:45;;;;;;;16.70;8.40;;;;;;;-11.76;100.00;100525.25;105862;1253;75144;-54
2023/02/23 01:22:14;;;;;;;20.20;7.80;;;;;;;-11.81;100.00;100528.54;105795;1254;68925;-54
2023/02/23 01:24:43;;;;;;;18.40;8.10;;;;;;;-11.85;100.00;100533.19;105722;1256;74108;-53
2023/02/23 01:27:12;;;;;;;18.60;8.90;;;;;;;-11.88;100.00;100537.13;105917;1254;61596;-56
2023/02/23 01:29:41;;;;;;;15.60;7.90;;;;;;;-11.91;100.00;100539.20;105843;1254;61571;-57
2023/02/23 01:32:10;;;;;;;17.00;7.70;;;;;;;-11.92;100.00;100541.73;105759;1254;75973;-54
2023/02/23 01:34:38;;;;;;;19.80;8.20;;;;;;;-11.91;100.00;100538.85;105692;1254;67987;-54
2023/02/23 01:37:07;;;;;;;16.90;7.80;;;;;;;-11.89;100.00;100537.64;105779;1254;74469;-55
2023/02/23 01:39:36;;;;;;;17.30;8.10;;;;;;;-11.89;100.00;100541.33;105726;1252;62692;-57
2023/02/23 01:42:24;;;;;;;19.10;9.60;;;;;;;-11.89;100.00;100547.02;105604;1254;62947;-57
2023/02/23 01:45:23;;;;;;;15.30;7.30;;;;;;;-11.89;100.00;100548.02;105914;1257;75713;-54
2023/02/23 01:47:53;;;;;;;16.50;7.90;;;;;;;-11.87;100.00;100547.65;105734;1256;68392;-56
2023/02/23 01:50:24;;;;;;;22.40;8.90;;;;;;;-11.84;100.00;100553.79;105693;1260;73630;-54
2023/02/23 01:52:52;;;;;;;15.80;8.60;;;;;;;-11.83;100.00;100554.11;105563;1260;61560;-55
2023/02/23 01:55:22;;;;;;;18.70;8.10;;;;;;;-11.83;100.00;100556.95;105693;1253;61260;-54
2023/02/23 01:57:58;;;;;;;20.10;7.80;;;;;;;-11.84;100.00;100565.70;105784;1253;75192;-53
2023/02/23 02:00:27;;;;;;;21.00;9.10;;;;;;;-11.87;100.00;100565.75;105426;1259;67578;-53
2023/02/23 02:02:57;;;;;;;18.70;9.10;;;;;;;-11.90;100.00;100562.98;105928;1254;74245;-54
2023/02/23 02:05:27;;;;;;;18.10;8.60;;;;;;;-11.93;100.00;100566.40;105651;1261;61330;-53
2023/02/23 02:07:57;;;;;;;13.30;6.40;;;;;;;-11.97;100.00;100570.48;105634;1254;61318;-56
2023/02/23 02:10:38;;;;;;;18.80;9.70;;;;;;;-12.01;100.00;100571.09;105457;1256;76494;-54
2023/02/23 02:13:08;;;;;;;23.80;9.30;;;;;;;-12.07;100.00;100575.38;105499;1260;67861;-55
2023/02/23 02:15:57;;;;;;;21.00;9.90;;;;;;;-12.13;100.00;100575.34;105635;1254;73039;-56
2023/02/23 02:18:29;;;;;;;22.70;9.80;;;;;;;-12.17;100.00;100578.45;105664;1254;63179;-55
2023/02/23 02:21:50;;;;;;;25.60;10.10;;;;;;;-12.20;100.00;100578.02;105912;1254;62068;-54
2023/02/23 02:24:27;;;;;;;24.20;9.90;;;;;;;-12.22;100.00;100584.08;105059;1265;76756;-54
2023/02/23 02:27:16;;;;;;;17.70;9.00;;;;;;;-12.24;100.00;100585.45;105705;1254;67283;-55
2023/02/23 02:30:12;;;;;;;22.70;10.20;;;;;;;-12.28;100.00;100581.52;105543;1255;73353;-54
2023/02/23 02:32:55;;;;;;;23.40;9.40;;;;;;;-12.28;100.00;100587.21;105937;1256;62521;-54
2023/02/23 02:35:31;;;;;;;19.00;8.20;;;;;;;-12.27;100.00;100591.06;105610;1253;61689;-53
2023/02/23 02:38:09;;;;;;;21.60;9.00;;;;;;;-12.31;100.00;100600.67;106054;1256;76154;-56
2023/02/23 02:40:52;;;;;;;17.20;7.50;;;;;;;-12.34;100.00;100602.25;106114;1254;66900;-58
2023/02/23 02:43:25;;;;;;;18.90;8.30;;;;;;;-12.35;100.00;100607.28;105438;1254;74277;-56
2023/02/23 02:46:16;;;;;;;17.10;7.60;;;;;;;-12.35;100.00;100616.16;105541;1254;62256;-53
2023/02/23 02:49:00;;;;;;;;;;;;;;;-12.37;100.00;100617.88;105680;1253;61276;-53
2023/02/23 02:51:50;;;;;;;17.30;6.90;;;;;;;-12.39;100.00;100621.60;105679;1256;75613;-55
2023/02/23 02:54:26;;;;;;;17.10;7.90;;;;;;;-12.43;100.00;100623.18;105829;1254;67958;-53
2023/02/23 02:56:56;;;;;;;15.70;7.40;;;;;;;-12.46;100.00;100627.92;105946;1256;74176;-54
2023/02/23 04:17:56;;;;;;;16.50;7.30;;;;;;;-12.84;100.00;100677.64;105753;1256;74149;-53
2023/02/23 04:20:25;;;;;;;15.60;7.30;;;;;;;-12.79;100.00;100680.89;105905;1254;68579;-55
2023/02/23 04:22:53;;;;;;;15.60;7.50;;;;;;;-12.72;100.00;100684.13;105649;1254;73497;-53
2023/02/23 04:25:22;;;;;;;16.20;7.80;;;;;;;-12.65;100.00;100692.05;105936;1254;62103;-53
2023/02/23 04:27:51;;;;;;;17.80;8.00;;;;;;;-12.63;100.00;100696.52;105656;1256;61374;-53
2023/02/23 04:30:20;;;;;;;17.30;8.00;;;;;;;-12.58;100.00;100699.45;105841;1253;74857;-55
2023/02/23 04:32:48;;;;;;;16.80;8.50;;;;;;;-12.48;100.00;100704.63;105746;1254;69159;-53
2023/02/23 04:35:17;;;;;;;17.00;8.00;;;;;;;-12.37;100.00;100708.79;105792;1267;73096;-53
2023/02/23 04:37:47;;;;;;;15.10;7.50;;;;;;;-12.24;100.00;100707.55;105757;1254;62557;-54
2023/02/23 04:40:16;;;;;;;19.80;8.30;;;;;;;-12.11;100.00;100708.83;105722;1254;61877;-56
2023/02/23 04:42:44;;;;;;;19.00;8.50;;;;;;;-12.01;100.00;100710.15;105418;1254;74513;-53
2023/02/23 04:45:14;;;;;;;18.50;8.80;;;;;;;-11.92;100.00;100711.14;105784;1254;68610;-53
2023/02/23 04:47:42;;;;;;;16.20;7.40;;;;;;;-11.82;100.00;100717.28;105793;1254;74115;-54
2023/02/23 04:50:12;;;;;;;22.70;8.90;;;;;;;-11.69;100.00;100724.23;105694;1254;62552;-53
2023/02/23 04:52:41;;;;;;;15.60;6.60;;;;;;;-11.58;100.00;100727.70;105956;1253;61565;-54
2023/02/23 04:55:17;;;;;;;14.10;6.20;;;;;;;-11.43;100.00;100731.75;105717;1253;75881;-55
2023/02/23 04:57:46;;;;;;;20.40;8.20;;;;;;;-11.26;100.00;100732.71;105781;1257;67927;-54
2023/02/23 05:00:15;;;;;;;14.60;6.90;;;;;;;-11.10;100.00;100737.56;105943;1256;72034;-55
2023/02/23 05:02:44;;;;;;;14.80;7.70;;;;;;;-10.91;100.00;100738.32;105917;1256;62557;-54
2023/02/23 05:05:13;;;;;;;17.10;7.90;;;;;;;-10.75;100.00;100739.77;105746;1253;61268;-56
2023/02/23 05:07:44;;;;;;;;;;;;;;;-10.56;100.00;100745.71;105766;1256;75534;-55
2023/02/23 05:10:18;;;;;;;16.00;6.70;;;;;;;-10.34;100.00;100750.71;105916;1254;67932;-56
2023/02/23 05:12:46;;;;;;;19.10;7.70;;;;;;;-10.14;100.00;100752.87;105630;1257;198369;-55
2023/02/23 05:15:15;;;;;;;18.10;8.70;;;;;;;-9.95;100.00;100752.52;106010;1254;62615;-58
2023/02/23 05:17:44;;;;;;;25.70;8.30;;;;;;;-9.78;100.00;100756.61;105934;1254;61641;-55
2023/02/23 05:20:17;;;;;;;16.40;8.20;;;;;;;-9.57;100.00;100759.23;105862;1254;76454;-55
2023/02/23 05:22:45;;;;;;;16.60;7.90;;;;;;;-9.35;100.00;100764.33;105873;1255;67563;-55
2023/02/23 05:25:15;;;;;;;17.00;8.40;;;;;;;-9.19;100.00;100759.80;105996;1256;72132;-56
2023/02/23 05:27:43;;;;;;;15.90;7.90;;;;;;;-9.05;100.00;100764.27;105833;1257;61391;-57
2023/02/23 05:30:12;;;;;;;17.00;8.50;;;;;;;-8.96;100.00;100765.52;105810;1255;60542;-55
2023/02/23 05:32:41;;;;;;;18.90;9.30;;;;;;;-8.87;100.00;100771.14;105883;1253;76132;-55
2023/02/23 05:35:09;;;;;;;18.10;8.10;;;;;;;-8.75;100.00;100779.20;105800;1256;68773;-56
2023/02/23 05:37:38;;;;;;;13.90;7.50;;;;;;;-8.64;100.00;100775.30;105881;1254;72640;-54
2023/02/23 05:40:08;;;;;;;17.80;8.70;;;;;;;-8.49;100.00;100777.86;105935;1256;61653;-60
2023/02/23 05:42:39;;;;;;;16.20;8.00;;;;;;;-8.33;100.00;100780.50;105773;1257;61129;-57
2023/02/23 05:45:08;;;;;;;15.40;8.00;;;;;;;-8.17;100.00;100789.92;105762;1253;76057;-56
2023/02/23 05:47:37;;;;;;;13.90;7.20;;;;;;;-7.95;100.00;100791.07;105863;1253;68131;-57
2023/02/23 05:50:11;;;;;;;14.90;7.20;;;;;;;-7.74;100.00;100786.95;105481;1256;73380;-55
2023/02/23 05:52:40;;;;;;;15.80;7.30;;;;;;;-7.51;100.00;100788.17;105787;1254;62725;-56
2023/02/23 05:55:11;;;;;;;15.30;8.50;;;;;;;-7.24;100.00;100785.48;105995;1254;61238;-55
2023/02/23 05:57:44;;;;;;;17.90;8.10;;;;;;;-6.88;100.00;100782.11;105938;1254;76118;-56
2023/02/23 06:00:13;;;;;;;16.80;8.90;;;;;;;-6.38;100.00;100783.52;105720;1254;67657;-56
2023/02/23 06:02:43;;;;;;;14.30;8.00;;;;;;;-5.60;100.00;100784.73;105948;1256;74209;-55
2023/02/23 06:05:12;;;;;;;16.10;8.70;;;;;;;-4.66;100.00;100785.56;105830;1254;61345;-55
2023/02/23 06:07:41;;;;;;;14.40;8.30;;;;;;;-3.92;100.00;100788.56;105936;1254;61864;-55
2023/02/23 06:10:11;;;;;;;12.10;6.90;;;;;;;-3.22;100.00;100790.04;105913;1254;74234;-54
2023/02/23 06:12:41;;;;;;;14.00;7.50;;;;;;;-2.43;100.00;100781.59;105735;1256;67786;-54
2023/02/23 06:15:10;;;;;;;13.50;8.10;;;;;;;-1.65;100.00;100775.73;105739;1257;72524;-55
2023/02/23 06:17:40;;;;;;;12.40;7.60;;;;;;;-1.19;100.00;100772.78;105690;1256;61423;-54
2023/02/23 06:20:09;;;;;;;16.10;8.80;;;;;;;-0.79;100.00;100774.33;105763;1256;61309;-54
2023/02/23 06:22:38;;;;;;;12.70;7.50;;;;;;;-0.35;100.00;100778.84;106036;1254;76015;-55
2023/02/23 06:25:11;;;;;;;13.40;7.30;;;;;;;0.06;100.00;100783.48;105733;1254;68080;-54
2023/02/23 06:27:41;;;;;;;13.50;8.40;;;;;;;0.36;99.88;100786.23;105518;1253;73365;-55
2023/02/23 06:30:10;;;;;;;16.20;9.50;;;;;;;0.36;92.78;100788.84;105741;1257;61259;-54
2023/02/23 06:32:39;;;;;;;13.10;8.30;;;;;;;0.58;90.89;100794.34;105796;1254;62045;-57
2023/02/23 06:35:10;;;;;;;13.00;8.50;;;;;;;1.07;85.23;100795.69;105585;1254;75090;-57
2023/02/23 06:37:39;;;;;;;12.40;7.70;;;;;;;1.61;80.23;100793.88;105567;1253;68335;-57
2023/02/23 06:40:08;;;;;;;12.30;7.80;;;;;;;1.97;69.52;100794.62;105826;1254;73578;-54
2023/02/23 06:42:37;;;;;;;13.20;8.40;;;;;;;2.15;63.55;100790.39;105882;1253;61352;-57
2023/02/23 06:45:09;;;;;;;13.40;9.00;;;;;;;2.28;57.61;100791.96;105712;1253;61189;-58
2023/02/23 06:47:39;;;;;;;12.70;8.60;;;;;;;2.43;55.71;100787.06;105756;1256;75948;-55
2023/02/23 06:50:09;;;;;;;11.50;7.60;;;;;;;2.63;53.16;100781.58;105849;1256;67605;-55
2023/02/23 06:52:38;;;;;;;12.20;7.60;;;;;;;2.87;51.01;100783.66;105840;1254;74979;-55
2023/02/23 06:55:07;;;;;;;13.80;8.50;;;;;;;2.89;48.83;100786.57;105813;1254;61342;-55
2023/02/23 06:57:36;;;;;;;12.00;7.50;;;;;;;2.90;47.28;100785.77;105673;1255;61598;-56
2023/02/23 07:00:05;;;;;;;11.00;7.10;;;;;;;2.81;46.21;100788.77;105843;1254;76105;-55
2023/02/23 07:02:36;;;;;;;15.30;8.30;;;;;;;2.63;45.17;100793.92;105722;1255;68963;-56
2023/02/23 07:05:05;;;;;;;13.80;8.50;;;;;;;2.50;45.32;100795.08;106052;1254;74218;-55
2023/02/23 07:07:33;;;;;;;10.40;7.20;;;;;;;2.61;45.10;100796.83;105656;1254;61241;-56
2023/02/23 07:10:03;;;;;;;9.00;6.60;;;;;;;2.74;44.34;100798.08;105874;1253;61320;-56
2023/02/23 07:12:33;;;;;;;11.00;7.20;;;;;;;2.77;43.73;100799.93;105679;1254;75303;-55
2023/02/23 07:15:03;;;;;;;10.00;7.10;;;;;;;2.78;43.42;100802.23;105986;1254;67413;-56
2023/02/23 07:17:31;;;;;;;10.50;6.80;;;;;;;2.97;43.56;100802.91;105689;1253;73952;-56
2023/02/23 07:20:03;;;;;;;9.00;6.70;;;;;;;3.30;43.12;100806.36;105960;1254;61758;-57
2023/02/23 07:22:33;;;;;;;14.10;7.40;;;;;;;3.62;42.81;100808.27;105699;1254;62280;-55
2023/02/23 07:25:03;;;;;;;9.90;6.70;;;;;;;3.96;42.01;100813.84;106028;1256;75878;-57
2023/02/23 07:27:32;;;;;;;9.50;6.70;;;;;;;4.20;41.01;100810.69;105619;1254;69309;-55
2023/02/23 07:30:03;;;;;;;9.40;6.70;;;;;;;4.30;40.40;100808.66;105975;1256;73998;-58
2023/02/23 07:32:32;;;;;;;10.60;6.60;;;;;;;4.39;40.15;100813.05;105665;1254;61260;-56
2023/02/23 07:35:03;;;;;;;8.70;6.70;;;;;;;4.51;39.95;100811.15;105879;1256;61132;-58
2023/02/23 07:37:35;;;;;;;9.80;6.90;;;;;;;4.70;39.46;100816.09;105729;1254;75305;-55
2023/02/23 07:40:05;;;;;;;9.40;6.60;;;;;;;4.75;38.36;100818.95;105700;1257;68412;-56
2023/02/23 07:42:34;;;;;;;10.50;7.00;;;;;;;4.63;38.53;100822.02;105680;1254;73481;-56
2023/02/23 07:45:05;;;;;;;9.50;6.90;;;;;;;4.60;38.05;100824.64;105615;1254;61298;-56
2023/02/23 07:47:36;;;;;;;11.50;6.30;;;;;;;4.42;37.83;100827.77;105911;1254;61216;-57
2023/02/23 07:50:11;;;;;;;11.20;7.60;;;;;;;4.34;37.96;100829.48;105700;1254;76207;-55
2023/02/23 07:52:41;;;;;;;10.40;6.50;;;;;;;4.42;38.11;100830.02;105644;1254;67872;-56
2023/02/23 07:55:09;;;;;;;9.30;6.40;;;;;;;4.46;37.70;100834.63;105637;1254;74117;-55
2023/02/23 07:57:38;;;;;;;11.10;7.10;;;;;;;4.45;37.41;100836.27;105868;1253;61231;-55
